Time;durP1;ratioP1;P1;durP2;ratioP2;P2;SDS_P1;SDS_P2;PMS_P1;PMS_P2;Temp;Humidity;BMP_temperature;BMP_pressure;BME280_temperature;BME280_humidity;BME280_pressure;Samples;Min_cycle;Max_cycle;Signal;HPM_P1;HPM_P2
2021/09/12 00:00:24;;;;;;;29.63;21.83;;;14.60;99.90;;;;;;5093982;28;20034;-80
2021/09/12 00:02:50;;;;;;;29.88;22.58;;;14.60;99.90;;;;;;5094421;28;20048;-80
2021/09/12 00:05:17;;;;;;;29.65;23.48;;;14.60;99.90;;;;;;5094695;28;20059;-80
2021/09/12 00:07:43;;;;;;;36.38;24.67;;;14.60;99.90;;;;;;5093087;28;20025;-80
2021/09/12 00:10:09;;;;;;;33.30;23.90;;;14.60;99.90;;;;;;5094425;28;20028;-80
2021/09/12 00:12:34;;;;;;;29.30;22.17;;;14.60;99.90;;;;;;5094535;28;20020;-80
2021/09/12 00:15:00;;;;;;;32.13;25.10;;;14.50;99.90;;;;;;5094471;28;20027;-80
2021/09/12 00:17:26;;;;;;;33.63;25.00;;;14.60;99.90;;;;;;5094138;28;20024;-80
2021/09/12 00:19:52;;;;;;;37.10;26.42;;;14.50;99.90;;;;;;5094078;28;20053;-79
2021/09/12 00:22:17;;;;;;;34.42;25.17;;;14.50;99.90;;;;;;5094403;28;20053;-79
2021/09/12 00:24:43;;;;;;;36.05;25.02;;;14.50;99.90;;;;;;5094045;28;20104;-79
2021/09/12 00:27:09;;;;;;;30.00;22.27;;;14.40;99.90;;;;;;5094090;28;20522;-80
2021/09/12 00:29:34;;;;;;;30.45;23.65;;;14.40;99.90;;;;;;5093935;28;20029;-80
2021/09/12 00:32:00;;;;;;;29.77;22.55;;;14.40;99.90;;;;;;5093914;28;20019;-80
2021/09/12 00:34:26;;;;;;;31.25;22.92;;;14.40;99.90;;;;;;5093967;28;20050;-80
2021/09/12 00:36:51;;;;;;;26.40;20.17;;;14.40;99.90;;;;;;5094235;28;20039;-80
2021/09/12 00:39:17;;;;;;;30.52;22.17;;;14.40;99.90;;;;;;5094185;28;20028;-80
2021/09/12 00:41:44;;;;;;;30.50;20.90;;;14.30;99.90;;;;;;5093779;28;20020;-80
2021/09/12 00:44:12;;;;;;;29.20;21.02;;;14.30;99.90;;;;;;5093859;28;20021;-79
2021/09/12 00:46:45;;;;;;;27.55;21.30;;;14.30;99.90;;;;;;5093762;28;20023;-80
2021/09/12 00:49:12;;;;;;;29.45;21.73;;;14.30;99.90;;;;;;5093755;28;20024;-80
2021/09/12 00:51:39;;;;;;;27.95;20.75;;;14.20;99.90;;;;;;5093745;28;20107;-80
2021/09/12 00:54:06;;;;;;;29.15;21.05;;;14.20;99.90;;;;;;5093719;28;20020;-80
2021/09/12 00:56:36;;;;;;;27.52;20.60;;;14.20;99.90;;;;;;5092411;28;20024;-80
2021/09/12 00:59:02;;;;;;;;;;;14.20;99.90;;;;;;5094291;28;20362;-80
2021/09/12 01:01:29;;;;;;;25.30;18.67;;;14.10;99.90;;;;;;5093962;28;19911;-80
2021/09/12 01:03:55;;;;;;;24.92;19.80;;;14.00;99.90;;;;;;5093624;28;20478;-80
2021/09/12 01:06:21;;;;;;;28.27;20.27;;;14.10;99.90;;;;;;5093931;28;20039;-80
2021/09/12 01:08:48;;;;;;;27.98;21.65;;;14.10;99.90;;;;;;5093663;28;20031;-79
2021/09/12 01:11:14;;;;;;;28.33;21.40;;;14.00;99.90;;;;;;5093891;28;20056;-79
2021/09/12 01:13:43;;;;;;;27.67;21.05;;;14.10;99.90;;;;;;5097632;28;20020;-80
2021/09/12 01:16:15;;;;;;;32.63;21.73;;;14.00;99.90;;;;;;5097655;28;20056;-80
2021/09/12 01:18:41;;;;;;;28.20;20.92;;;14.00;99.90;;;;;;5097614;28;20024;-79
2021/09/12 01:21:12;;;;;;;24.83;20.80;;;13.90;99.90;;;;;;5097537;28;20479;-80
2021/09/12 01:23:37;;;;;;;27.50;20.50;;;13.90;99.90;;;;;;5096283;28;20027;-80
2021/09/12 01:26:04;;;;;;;25.80;20.02;;;13.90;99.90;;;;;;5097404;28;20028;-80
2021/09/12 01:28:30;;;;;;;30.02;21.65;;;13.90;99.90;;;;;;5097343;28;20024;-80
2021/09/12 01:31:00;;;;;;;31.13;22.52;;;13.90;99.90;;;;;;5097194;28;20024;-80
2021/09/12 01:33:26;;;;;;;;;;;13.90;99.90;;;;;;5096444;28;20046;-80
2021/09/12 01:35:52;;;;;;;30.58;21.23;;;13.80;99.90;;;;;;5097238;28;19907;-79
2021/09/12 01:38:17;;;;;;;25.85;20.88;;;13.80;99.90;;;;;;5097537;28;20511;-80
2021/09/12 01:40:43;;;;;;;29.30;21.70;;;13.80;99.90;;;;;;5097134;28;20101;-79
2021/09/12 01:43:09;;;;;;;28.92;22.20;;;13.80;99.90;;;;;;5097078;28;20050;-79
2021/09/12 01:45:34;;;;;;;27.50;21.63;;;13.70;99.90;;;;;;5095756;28;20039;-80
2021/09/12 01:48:00;;;;;;;28.83;21.60;;;13.80;99.90;;;;;;5096981;28;20060;-80
2021/09/12 01:50:27;;;;;;;27.58;22.33;;;13.70;99.90;;;;;;5096743;28;20052;-79
2021/09/12 01:52:54;;;;;;;26.25;20.77;;;13.70;99.90;;;;;;5096964;28;20026;-79
2021/09/12 01:55:20;;;;;;;27.80;22.02;;;13.70;99.90;;;;;;5096993;28;20027;-79
2021/09/12 01:57:46;;;;;;;32.70;22.42;;;13.60;99.90;;;;;;5096821;28;20024;-80
2021/09/12 02:00:12;;;;;;;28.20;22.08;;;13.60;99.90;;;;;;5095529;28;20047;-80
2021/09/12 02:02:38;;;;;;;30.65;21.38;;;13.60;99.90;;;;;;5095384;28;20400;-79
2021/09/12 02:05:05;;;;;;;28.95;21.85;;;13.60;99.90;;;;;;5096642;28;20031;-79
2021/09/12 02:07:30;;;;;;;31.13;22.52;;;13.50;99.90;;;;;;5096570;28;20035;-79
2021/09/12 02:09:57;;;;;;;31.80;22.50;;;13.50;99.90;;;;;;5096608;28;20424;-79
2021/09/12 02:12:22;;;;;;;28.55;23.08;;;13.50;99.90;;;;;;5096629;28;20422;-79
2021/09/12 02:14:48;;;;;;;32.13;22.88;;;13.40;99.90;;;;;;5096488;28;20027;-79
2021/09/12 02:17:14;;;;;;;31.30;22.45;;;13.40;99.90;;;;;;5096426;28;20095;-79
2021/09/12 02:19:40;;;;;;;30.50;22.95;;;13.40;99.90;;;;;;5096403;28;20016;-79
2021/09/12 02:22:07;;;;;;;27.98;22.40;;;13.40;99.90;;;;;;5096185;28;20031;-79
2021/09/12 02:24:36;;;;;;;30.15;22.48;;;13.40;99.90;;;;;;5096308;28;20378;-79
2021/09/12 02:27:02;;;;;;;30.85;22.15;;;13.30;99.90;;;;;;5096321;28;20024;-80
2021/09/12 02:29:29;;;;;;;34.55;23.25;;;13.30;99.90;;;;;;5096212;28;20477;-79
2021/09/12 02:31:55;;;;;;;30.40;21.85;;;13.30;99.90;;;;;;5096167;28;20378;-79
2021/09/12 02:34:21;;;;;;;32.53;23.48;;;13.30;99.90;;;;;;5094897;28;20035;-79
2021/09/12 02:36:47;;;;;;;32.67;23.10;;;13.20;99.90;;;;;;5094892;28;20044;-79
2021/09/12 02:39:12;;;;;;;33.78;24.15;;;13.20;99.90;;;;;;5096027;28;20467;-79
2021/09/12 02:41:38;;;;;;;30.48;22.35;;;13.20;99.90;;;;;;5096021;28;20035;-79
2021/09/12 02:44:04;;;;;;;36.70;25.20;;;13.20;99.90;;;;;;5096193;28;20032;-79
2021/09/12 02:46:31;;;;;;;36.30;26.63;;;13.20;99.90;;;;;;5095840;28;20047;-79
2021/09/12 02:48:57;;;;;;;31.20;22.38;;;13.20;99.90;;;;;;5096600;28;20095;-80
2021/09/12 02:51:23;;;;;;;31.83;22.20;;;13.20;99.90;;;;;;5095805;28;20040;-79
2021/09/12 02:53:49;;;;;;;33.10;22.83;;;13.10;99.90;;;;;;5094489;28;20389;-79
2021/09/12 02:56:15;;;;;;;34.05;25.73;;;13.20;99.90;;;;;;5075437;28;20104;-80
2021/09/12 02:58:40;;;;;;;32.92;24.52;;;13.10;99.90;;;;;;5075418;28;20048;-80
2021/09/12 03:01:06;;;;;;;35.30;26.27;;;13.10;99.90;;;;;;5075725;28;20421;-79
2021/09/12 03:03:32;;;;;;;35.85;25.40;;;13.10;99.90;;;;;;5074041;28;20032;-80
2021/09/12 03:05:57;;;;;;;36.72;27.13;;;13.10;99.90;;;;;;5089812;28;20024;-79
2021/09/12 03:08:23;;;;;;;34.58;23.85;;;13.10;99.90;;;;;;5095553;28;20105;-79
2021/09/12 03:10:49;;;;;;;30.52;24.25;;;13.10;99.90;;;;;;5095375;28;20020;-80
2021/09/12 03:13:15;;;;;;;36.53;25.80;;;13.10;99.90;;;;;;5095352;28;20020;-79
2021/09/12 03:15:40;;;;;;;36.40;26.33;;;13.10;99.90;;;;;;5095336;28;20019;-79
2021/09/12 03:18:06;;;;;;;35.40;25.90;;;13.00;99.90;;;;;;5095243;28;20016;-80
2021/09/12 03:20:32;;;;;;;34.92;25.45;;;13.00;99.90;;;;;;5095284;28;20028;-79
2021/09/12 03:22:58;;;;;;;36.22;27.75;;;13.00;99.90;;;;;;5095073;28;20024;-79
2021/09/12 03:25:24;;;;;;;35.45;26.45;;;13.00;99.90;;;;;;5095410;28;20024;-79
2021/09/12 03:27:52;;;;;;;35.05;25.30;;;13.00;99.90;;;;;;5095090;28;20024;-79
2021/09/12 03:30:18;;;;;;;37.03;26.95;;;13.00;99.90;;;;;;5095255;28;20020;-79
2021/09/12 03:32:44;;;;;;;35.42;26.52;;;13.00;99.90;;;;;;5095003;28;20043;-79
2021/09/12 03:35:10;;;;;;;36.65;26.45;;;13.00;99.90;;;;;;5094113;28;20055;-79
2021/09/12 03:37:36;;;;;;;39.95;28.75;;;13.00;99.90;;;;;;5094889;28;20024;-79
2021/09/12 03:40:03;;;;;;;36.20;26.05;;;13.00;99.90;;;;;;5095122;28;20741;-79
2021/09/12 03:42:28;;;;;;;36.13;26.08;;;13.00;99.90;;;;;;5093759;28;20056;-80
2021/09/12 03:44:54;;;;;;;34.45;24.80;;;13.00;99.90;;;;;;5095087;28;20051;-79
2021/09/12 03:47:20;;;;;;;37.40;28.00;;;13.00;99.90;;;;;;5094994;28;20016;-79
2021/09/12 03:49:46;;;;;;;37.33;25.85;;;13.00;99.90;;;;;;5094431;28;20052;-79
2021/09/12 03:52:12;;;;;;;41.22;29.15;;;13.00;99.90;;;;;;5094612;28;20060;-79
2021/09/12 03:54:37;;;;;;;44.10;27.33;;;13.10;99.90;;;;;;5095016;28;20141;-79
2021/09/12 03:57:04;;;;;;;38.15;26.45;;;13.10;99.90;;;;;;5094574;28;20024;-79
2021/09/12 03:59:29;;;;;;;40.30;28.85;;;13.10;99.90;;;;;;5094306;28;20588;-79
2021/09/12 04:01:55;;;;;;;41.05;27.73;;;13.10;99.90;;;;;;5093781;28;20056;-79
2021/09/12 04:04:21;;;;;;;39.60;29.88;;;13.20;99.90;;;;;;5094761;28;20031;-80
2021/09/12 04:06:46;;;;;;;44.15;27.70;;;13.20;99.90;;;;;;5094389;28;20090;-79
2021/09/12 04:09:12;;;;;;;35.05;25.27;;;13.20;99.90;;;;;;5094310;28;20495;-79
2021/09/12 04:11:38;;;;;;;42.50;28.52;;;13.30;99.90;;;;;;5092924;28;20042;-79
2021/09/12 04:14:03;;;;;;;36.97;28.23;;;13.30;99.90;;;;;;5094249;28;20047;-80
2021/09/12 04:16:29;;;;;;;38.67;29.08;;;13.40;99.90;;;;;;5094251;28;20094;-80
2021/09/12 04:18:55;;;;;;;46.88;28.63;;;13.40;99.90;;;;;;5092868;28;20031;-79
2021/09/12 04:21:20;;;;;;;39.88;30.70;;;13.50;99.90;;;;;;5094231;28;20034;-80
2021/09/12 04:23:46;;;;;;;45.70;30.85;;;13.60;99.90;;;;;;5094081;28;20433;-80
2021/09/12 04:26:12;;;;;;;40.63;29.95;;;13.60;99.90;;;;;;5094030;28;20032;-80
2021/09/12 04:28:38;;;;;;;38.17;28.15;;;13.70;99.90;;;;;;5094050;28;20024;-79
2021/09/12 04:31:03;;;;;;;47.95;29.40;;;13.80;99.90;;;;;;5092658;28;20028;-80
2021/09/12 04:33:30;;;;;;;39.03;27.70;;;13.90;99.90;;;;;;5094120;28;20016;-80
2021/09/12 04:35:55;;;;;;;37.20;26.58;;;14.10;99.90;;;;;;5093910;28;20020;-80
2021/09/12 04:38:21;;;;;;;37.85;27.42;;;14.20;99.90;;;;;;5093821;28;20035;-80
2021/09/12 04:40:47;;;;;;;40.70;27.88;;;14.30;99.90;;;;;;5092640;28;20028;-80
2021/09/12 04:43:13;;;;;;;36.65;27.60;;;14.40;99.90;;;;;;5093809;28;20028;-80
2021/09/12 04:45:39;;;;;;;40.53;29.75;;;14.50;99.90;;;;;;5093592;28;20032;-80
2021/09/12 04:48:04;;;;;;;38.80;26.80;;;14.60;99.90;;;;;;5093985;28;20381;-80
2021/09/12 04:50:30;;;;;;;33.53;25.52;;;14.60;99.90;;;;;;5092182;28;20048;-80
2021/09/12 04:52:56;;;;;;;36.15;26.30;;;14.70;99.90;;;;;;5092455;28;20022;-80
2021/09/12 04:55:21;;;;;;;34.03;25.52;;;14.80;99.90;;;;;;5092368;28;20386;-79
2021/09/12 04:57:47;;;;;;;31.75;25.45;;;15.00;99.90;;;;;;5092895;28;20016;-79
2021/09/12 05:00:13;;;;;;;36.00;26.83;;;15.30;99.90;;;;;;5092364;28;20024;-79
2021/09/12 05:02:39;;;;;;;35.45;26.45;;;15.30;99.90;;;;;;5092167;28;20413;-79
2021/09/12 05:05:06;;;;;;;34.60;27.48;;;15.40;99.90;;;;;;5092307;28;20118;-79
2021/09/12 05:07:31;;;;;;;36.65;25.40;;;15.60;99.90;;;;;;5088913;28;20497;-78
2021/09/12 05:09:57;;;;;;;32.35;25.75;;;15.80;99.90;;;;;;5072057;28;20032;-79
2021/09/12 05:12:24;;;;;;;33.33;25.65;;;15.80;99.90;;;;;;5073298;28;20048;-79
2021/09/12 05:14:50;;;;;;;35.15;27.15;;;15.90;99.90;;;;;;5073351;28;20016;-79
2021/09/12 05:17:16;;;;;;;29.70;23.48;;;15.90;99.90;;;;;;5072016;28;20074;-80
2021/09/12 05:19:41;;;;;;;36.67;26.05;;;16.00;99.90;;;;;;5073257;28;20020;-80
2021/09/12 05:22:07;;;;;;;37.03;24.55;;;16.10;99.90;;;;;;5072040;28;20467;-80
2021/09/12 05:24:33;;;;;;;32.80;23.42;;;16.20;99.90;;;;;;5071969;28;20539;-80
2021/09/12 05:26:58;;;;;;;29.52;23.90;;;16.20;99.90;;;;;;5073138;28;20032;-80
2021/09/12 05:29:24;;;;;;;32.97;24.33;;;16.30;99.90;;;;;;5073357;28;20467;-80
2021/09/12 05:31:51;;;;;;;34.25;25.17;;;16.40;99.90;;;;;;5073344;28;20035;-80
2021/09/12 05:34:17;;;;;;;35.38;24.38;;;16.50;99.90;;;;;;5087938;28;20023;-80
2021/09/12 05:36:43;;;;;;;29.40;22.70;;;16.60;99.90;;;;;;5093317;28;20063;-80
2021/09/12 05:39:08;;;;;;;34.55;25.90;;;16.70;99.90;;;;;;5093592;28;20024;-80
2021/09/12 05:41:34;;;;;;;37.72;24.65;;;16.70;99.90;;;;;;5091976;28;20032;-80
2021/09/12 05:44:00;;;;;;;36.75;24.45;;;16.70;99.90;;;;;;5093546;28;20034;-80
2021/09/12 05:46:26;;;;;;;31.83;23.20;;;16.80;99.90;;;;;;5093117;28;20028;-79
2021/09/12 17:06:36;;;;;;;43.63;28.55;;;18.50;92.10;;;;;;5071109;28;20438;-83
2021/09/12 17:09:02;;;;;;;69.15;44.97;;;17.90;93.60;;;;;;5069593;28;20029;-81
2021/09/12 17:11:30;;;;;;;45.28;30.90;;;17.80;94.90;;;;;;5070598;28;20356;-84
2021/09/12 17:13:56;;;;;;;40.13;26.08;;;17.80;95.90;;;;;;5070507;28;20099;-85
2021/09/12 17:16:22;;;;;;;41.55;27.80;;;17.80;96.80;;;;;;5069580;28;20119;-83
2021/09/12 17:18:47;;;;;;;85.35;50.67;;;17.80;97.50;;;;;;5070482;28;20029;-84
2021/09/12 17:21:13;;;;;;;100.18;54.78;;;17.80;98.00;;;;;;5068926;28;20017;-84
2021/09/12 17:23:39;;;;;;;133.60;62.60;;;17.80;98.50;;;;;;5068726;28;20025;-84
2021/09/12 17:26:05;;;;;;;144.57;67.00;;;17.80;98.90;;;;;;5068589;28;20048;-84
2021/09/12 17:28:31;;;;;;;114.40;51.50;;;17.90;99.30;;;;;;5068558;28;20510;-85
2021/09/12 17:30:57;;;;;;;65.75;34.10;;;17.80;99.50;;;;;;5069917;28;20056;-84
2021/09/12 17:33:23;;;;;;;61.88;32.38;;;17.90;99.80;;;;;;5070167;28;20444;-83
2021/09/12 17:35:49;;;;;;;57.05;28.10;;;17.80;99.90;;;;;;5068763;28;20028;-83
2021/09/12 17:38:14;;;;;;;64.00;35.58;;;17.90;99.90;;;;;;5069809;28;20021;-83
2021/09/12 17:40:40;;;;;;;66.90;35.20;;;17.90;99.70;;;;;;5069944;28;20032;-83
2021/09/12 17:43:06;;;;;;;59.53;29.73;;;18.00;99.80;;;;;;5068415;28;20025;-83
2021/09/12 17:45:31;;;;;;;47.97;29.52;;;18.00;99.80;;;;;;5069876;28;20029;-88
2021/09/12 17:47:57;;;;;;;48.53;27.77;;;18.10;99.90;;;;;;5068597;28;20060;-82
2021/09/12 17:50:23;;;;;;;43.15;26.95;;;18.10;99.90;;;;;;5069756;28;20021;-80
2021/09/12 17:52:48;;;;;;;58.58;35.17;;;18.20;99.90;;;;;;5068651;28;20423;-87
2021/09/12 17:55:14;;;;;;;47.88;27.63;;;18.20;99.60;;;;;;5068692;28;20032;-87
2021/09/12 17:57:40;;;;;;;42.42;23.92;;;18.20;99.60;;;;;;5069437;28;20463;-84
2021/09/12 18:00:06;;;;;;;40.78;24.50;;;18.20;99.70;;;;;;5068183;28;20475;-86
2021/09/12 18:02:32;;;;;;;63.88;32.47;;;18.20;99.50;;;;;;5069797;28;20031;-87
2021/09/12 18:04:57;;;;;;;46.17;25.50;;;18.20;99.40;;;;;;5067803;28;20045;-85
2021/09/12 18:07:23;;;;;;;44.67;24.80;;;18.10;99.40;;;;;;5068395;28;20116;-87
2021/09/12 18:09:49;;;;;;;33.63;22.75;;;18.20;99.50;;;;;;5068324;28;20471;-86
2021/09/12 18:12:14;;;;;;;42.67;22.45;;;18.20;99.40;;;;;;5068321;28;20381;-86
2021/09/12 18:14:40;;;;;;;44.47;22.90;;;18.20;99.60;;;;;;5069884;28;20056;-91
2021/09/12 18:17:06;;;;;;;36.97;25.75;;;18.20;99.30;;;;;;5060275;28;20108;-87
2021/09/12 18:19:33;;;;;;;45.38;26.83;;;18.20;99.20;;;;;;5057702;28;20024;-85
2021/09/12 18:22:02;;;;;;;40.58;24.83;;;18.30;99.20;;;;;;5057194;28;20088;-94
2021/09/12 18:24:28;;;;;;;43.90;25.35;;;18.30;99.10;;;;;;5056162;28;20039;-84
2021/09/12 18:26:53;;;;;;;49.70;25.77;;;18.40;98.90;;;;;;5056276;28;20025;-95
2021/09/12 18:29:19;;;;;;;48.70;33.05;;;18.40;99.10;;;;;;5055240;28;20529;-87
2021/09/12 18:31:48;;;;;;;41.88;25.38;;;18.40;98.80;;;;;;5054580;28;20468;-83
2021/09/12 18:34:14;;;;;;;41.75;25.15;;;18.40;98.70;;;;;;5073188;28;20408;-83
2021/09/12 18:36:40;;;;;;;39.95;23.63;;;18.30;98.80;;;;;;5074633;28;20016;-83
2021/09/12 18:39:06;;;;;;;43.65;24.48;;;18.30;98.90;;;;;;5075627;28;20025;-84
2021/09/12 18:41:31;;;;;;;113.90;73.80;;;18.30;98.80;;;;;;5074539;28;20490;-83
2021/09/12 18:43:57;;;;;;;107.05;70.10;;;18.20;98.90;;;;;;5060356;28;20025;-83
2021/09/12 18:46:23;;;;;;;55.10;34.47;;;18.10;99.00;;;;;;5055462;28;20021;-83
2021/09/12 18:48:49;;;;;;;42.70;27.75;;;18.10;99.10;;;;;;5054083;28;20379;-82
2021/09/12 18:51:16;;;;;;;43.95;28.02;;;18.00;99.30;;;;;;5053807;28;20032;-83
2021/09/12 18:53:43;;;;;;;52.30;28.90;;;17.90;99.40;;;;;;5054080;28;20032;-82
2021/09/12 18:56:10;;;;;;;48.42;29.70;;;17.90;99.60;;;;;;5054575;28;20396;-82
2021/09/12 18:58:35;;;;;;;55.53;31.70;;;17.80;99.70;;;;;;5053998;28;20036;-83
2021/09/12 19:01:02;;;;;;;55.08;35.00;;;17.80;99.80;;;;;;5053693;28;20096;-82
2021/09/12 19:03:28;;;;;;;59.30;34.60;;;17.70;99.90;;;;;;5055261;28;20029;-82
2021/09/12 19:05:54;;;;;;;67.88;39.13;;;17.60;99.90;;;;;;5053820;28;20523;-83
2021/09/12 19:08:20;;;;;;;66.47;38.05;;;17.60;99.90;;;;;;5055318;28;20021;-82
2021/09/12 19:10:46;;;;;;;60.42;36.80;;;17.50;99.90;;;;;;5055071;28;20027;-82
2021/09/12 19:13:12;;;;;;;63.28;38.22;;;17.50;99.90;;;;;;5055271;28;20025;-81
2021/09/12 19:15:38;;;;;;;61.13;37.00;;;17.50;99.90;;;;;;5055178;28;20536;-81
2021/09/12 19:18:04;;;;;;;50.95;33.35;;;17.40;99.90;;;;;;5055199;28;20383;-79
2021/09/12 19:20:30;;;;;;;56.20;36.35;;;17.40;99.90;;;;;;5055487;28;20029;-81
2021/09/12 19:22:55;;;;;;;59.85;36.78;;;17.30;99.90;;;;;;5055117;28;20479;-81
2021/09/12 19:25:21;;;;;;;59.80;36.40;;;17.30;99.90;;;;;;5054915;28;20488;-80
2021/09/12 19:27:47;;;;;;;58.10;36.15;;;17.20;99.90;;;;;;5054525;28;20051;-81
2021/09/12 19:30:13;;;;;;;56.53;33.67;;;17.20;99.90;;;;;;5054828;28;20017;-80
2021/09/12 19:32:39;;;;;;;49.50;31.70;;;17.10;99.90;;;;;;5055403;28;20029;-81
2021/09/12 19:35:14;;;;;;;57.63;34.53;;;17.10;99.90;;;;;;5053546;28;20024;-80
2021/09/12 19:37:40;;;;;;;55.83;33.72;;;17.10;99.90;;;;;;5054794;28;20025;-80
2021/09/12 19:40:07;;;;;;;54.08;32.50;;;17.10;99.90;;;;;;5053464;28;20036;-81
2021/09/12 19:42:32;;;;;;;56.17;35.42;;;17.00;99.90;;;;;;5054659;28;20031;-81
2021/09/12 19:45:00;;;;;;;52.15;34.65;;;17.00;99.90;;;;;;5054691;28;20028;-81
2021/09/12 19:47:27;;;;;;;56.78;34.30;;;17.00;99.90;;;;;;5053321;28;20021;-80
2021/09/12 19:49:56;;;;;;;49.05;31.48;;;16.90;99.90;;;;;;5054644;28;20049;-81
2021/09/12 19:52:24;;;;;;;48.33;32.63;;;16.90;99.90;;;;;;5053264;28;20472;-80
2021/09/12 19:54:50;;;;;;;44.35;28.85;;;16.90;99.90;;;;;;5054786;28;20033;-80
2021/09/12 19:57:16;;;;;;;42.28;27.77;;;16.80;99.90;;;;;;5054494;28;20104;-82
2021/09/12 19:59:45;;;;;;;45.47;28.00;;;16.80;99.90;;;;;;5054319;28;20468;-81
2021/09/12 20:02:10;;;;;;;37.97;25.38;;;16.80;99.90;;;;;;5053034;28;20025;-80
2021/09/12 20:04:36;;;;;;;46.38;30.98;;;16.70;99.90;;;;;;5053948;28;20041;-80
2021/09/12 20:07:02;;;;;;;39.55;25.50;;;16.70;99.90;;;;;;5054548;28;20021;-80
2021/09/12 20:09:27;;;;;;;33.25;22.65;;;16.70;99.90;;;;;;5053000;28;20029;-80
2021/09/12 20:11:53;;;;;;;32.65;22.80;;;16.60;99.90;;;;;;5054013;28;20056;-80
2021/09/12 20:14:19;;;;;;;35.05;23.38;;;16.70;99.90;;;;;;5054271;28;20028;-81
2021/09/12 20:16:44;;;;;;;37.15;22.88;;;16.60;99.90;;;;;;5052947;28;20062;-80
2021/09/12 20:19:10;;;;;;;32.15;22.27;;;16.60;99.90;;;;;;5054392;28;20021;-79
2021/09/12 20:21:36;;;;;;;34.08;22.13;;;16.60;99.90;;;;;;5054105;28;20048;-80
2021/09/12 20:24:03;;;;;;;31.95;20.98;;;16.50;99.90;;;;;;5052662;28;20017;-82
2021/09/12 20:26:29;;;;;;;31.95;22.05;;;16.50;99.90;;;;;;5052609;28;20112;-84
2021/09/12 20:28:55;;;;;;;30.35;20.45;;;16.50;99.90;;;;;;5052670;28;20108;-82
2021/09/12 20:31:21;;;;;;;35.20;21.65;;;16.40;99.90;;;;;;5054114;28;20489;-83
2021/09/12 20:33:46;;;;;;;29.85;20.88;;;16.40;99.90;;;;;;5054140;28;20053;-83
2021/09/12 20:36:12;;;;;;;46.38;32.35;;;16.40;99.90;;;;;;5053794;28;20033;-84
2021/09/12 20:38:38;;;;;;;34.88;22.48;;;16.40;99.90;;;;;;5053841;28;20387;-84
2021/09/12 20:41:07;;;;;;;34.97;23.90;;;16.30;99.90;;;;;;5052307;28;20025;-84
2021/09/12 20:43:33;;;;;;;37.50;24.52;;;16.30;99.90;;;;;;5053892;28;20025;-84
2021/09/12 20:45:59;;;;;;;35.65;23.85;;;16.20;99.90;;;;;;5052443;28;20040;-84
2021/09/12 20:48:24;;;;;;;36.55;23.02;;;16.20;99.90;;;;;;5052353;28;20028;-84
2021/09/12 20:50:50;;;;;;;35.88;24.65;;;16.20;99.90;;;;;;5052363;28;20090;-84
2021/09/12 20:53:16;;;;;;;43.63;29.23;;;16.20;99.90;;;;;;5052454;28;20048;-83
2021/09/12 20:55:42;;;;;;;41.72;24.75;;;16.20;99.90;;;;;;5052489;28;20495;-82
2021/09/12 20:58:07;;;;;;;39.65;25.70;;;16.10;99.90;;;;;;5053526;28;20025;-82
2021/09/12 21:00:33;;;;;;;36.30;24.67;;;16.10;99.90;;;;;;5053622;28;20029;-81
2021/09/12 21:02:59;;;;;;;38.13;24.77;;;16.10;99.90;;;;;;5052258;28;20021;-81
2021/09/12 21:05:25;;;;;;;35.78;24.33;;;16.00;99.90;;;;;;5053221;28;20052;-82
2021/09/12 21:07:51;;;;;;;39.50;24.08;;;16.00;99.90;;;;;;5053422;28;20021;-81
2021/09/12 21:10:16;;;;;;;43.35;24.73;;;16.00;99.90;;;;;;5053570;28;20025;-82
2021/09/12 21:12:43;;;;;;;36.58;24.30;;;16.00;99.90;;;;;;5053481;28;20025;-81
2021/09/12 21:15:13;;;;;;;39.95;24.35;;;15.90;99.90;;;;;;5052167;28;20731;-81
2021/09/12 21:17:40;;;;;;;44.92;26.17;;;15.90;99.90;;;;;;5045256;28;20029;-81
2021/09/12 21:20:06;;;;;;;41.55;24.92;;;15.90;99.90;;;;;;5052071;28;20083;-81
2021/09/12 21:22:32;;;;;;;38.35;24.45;;;15.90;99.90;;;;;;5051948;28;20120;-81
2021/09/12 21:24:58;;;;;;;42.38;25.58;;;15.80;99.90;;;;;;5051994;28;20546;-81
2021/09/12 21:27:24;;;;;;;36.65;25.15;;;15.90;99.90;;;;;;5053596;28;20025;-81
2021/09/12 21:29:50;;;;;;;41.67;23.27;;;15.80;99.90;;;;;;5051733;28;20021;-81
2021/09/12 21:32:16;;;;;;;37.50;24.13;;;15.80;99.90;;;;;;5053296;28;20017;-82
2021/09/12 21:34:41;;;;;;;38.65;24.50;;;15.80;99.90;;;;;;5051878;28;20033;-81
2021/09/12 21:37:07;;;;;;;34.88;24.38;;;15.70;99.90;;;;;;5053156;28;20055;-82
2021/09/12 21:39:32;;;;;;;40.97;25.85;;;15.70;99.90;;;;;;5053170;28;20056;-82
2021/09/12 21:41:58;;;;;;;37.88;23.83;;;15.70;99.90;;;;;;5053200;28;20079;-81
2021/09/12 21:44:24;;;;;;;39.55;24.27;;;15.60;99.90;;;;;;5053303;28;20025;-81
2021/09/12 21:46:49;;;;;;;37.40;24.48;;;15.60;99.90;;;;;;5053031;28;20017;-81
2021/09/12 21:49:18;;;;;;;35.67;25.00;;;15.60;99.90;;;;;;5053090;28;20029;-81
2021/09/12 21:51:44;;;;;;;37.22;24.70;;;15.50;99.90;;;;;;5052896;28;20388;-81
2021/09/12 21:54:10;;;;;;;42.58;24.00;;;15.50;99.90;;;;;;5056825;28;20025;-82
2021/09/12 21:56:37;;;;;;;36.35;23.08;;;15.50;99.90;;;;;;5055608;28;20090;-81
2021/09/12 21:59:03;;;;;;;40.00;23.58;;;15.50;99.90;;;;;;5057118;28;20379;-81
2021/09/12 22:01:28;;;;;;;37.20;23.58;;;15.50;99.90;;;;;;5055447;28;20111;-81
2021/09/12 22:03:54;;;;;;;35.72;23.40;;;15.50;99.90;;;;;;5055371;28;20090;-81
2021/09/12 22:06:20;;;;;;;36.25;24.02;;;15.50;99.90;;;;;;5056374;28;20132;-81
2021/09/12 22:08:45;;;;;;;38.83;24.10;;;15.40;99.90;;;;;;5055645;28;20021;-81
2021/09/12 22:11:14;;;;;;;38.22;24.23;;;15.50;99.90;;;;;;5055300;28;20086;-81
2021/09/12 22:13:40;;;;;;;37.33;23.80;;;15.40;99.90;;;;;;5055234;28;20028;-81
2021/09/12 22:16:06;;;;;;;33.08;23.63;;;15.40;99.90;;;;;;5056404;28;20024;-81
2021/09/12 22:18:32;;;;;;;35.80;24.33;;;15.40;99.90;;;;;;5056696;28;20368;-81
2021/09/12 22:20:58;;;;;;;34.20;24.83;;;15.40;99.90;;;;;;5056383;28;20037;-81
2021/09/12 22:23:23;;;;;;;36.05;25.38;;;15.30;99.90;;;;;;5056537;28;20028;-81
2021/09/12 22:25:49;;;;;;;35.42;23.85;;;15.30;99.90;;;;;;5056552;28;20036;-81
2021/09/12 22:28:15;;;;;;;33.45;23.83;;;15.20;99.90;;;;;;5056295;28;20506;-81
2021/09/12 22:30:53;;;;;;;36.83;25.10;;;15.20;99.90;;;;;;5054928;28;20025;-81
2021/09/12 22:33:20;;;;;;;39.75;26.48;;;15.30;99.90;;;;;;5056164;28;20048;-81
2021/09/12 22:35:45;;;;;;;35.63;25.67;;;15.20;99.90;;;;;;5056075;28;20025;-81
2021/09/12 22:38:11;;;;;;;36.67;25.65;;;15.20;99.90;;;;;;5054787;28;20021;-81
2021/09/12 22:40:39;;;;;;;41.45;24.85;;;15.20;99.90;;;;;;5056065;28;20029;-81
2021/09/12 22:43:05;;;;;;;40.90;26.52;;;15.10;99.90;;;;;;5055927;28;20048;-81
2021/09/12 22:45:31;;;;;;;38.55;24.63;;;15.10;99.90;;;;;;5055843;28;20064;-81
2021/09/12 22:47:57;;;;;;;34.97;26.30;;;15.10;99.90;;;;;;5054533;28;20082;-81
2021/09/12 22:50:23;;;;;;;37.08;24.77;;;15.10;99.90;;;;;;5056215;28;20025;-81
2021/09/12 22:52:48;;;;;;;36.38;26.17;;;15.00;99.90;;;;;;5055781;28;20029;-81
2021/09/12 22:55:14;;;;;;;34.40;25.92;;;15.00;99.90;;;;;;5056023;28;20067;-81
2021/09/12 22:57:40;;;;;;;34.35;25.42;;;15.00;99.90;;;;;;5054431;28;20021;-81
2021/09/12 23:00:08;;;;;;;38.58;24.42;;;15.00;99.90;;;;;;5054382;28;20029;-81
2021/09/12 23:02:34;;;;;;;35.35;25.48;;;15.00;99.90;;;;;;5055085;28;20029;-81
2021/09/12 23:05:00;;;;;;;34.30;24.50;;;15.00;99.90;;;;;;5054005;28;20376;-81
2021/09/12 23:07:26;;;;;;;34.05;24.23;;;15.00;99.90;;;;;;5055230;28;20036;-81
2021/09/12 23:09:51;;;;;;;45.33;27.40;;;15.00;99.90;;;;;;5055188;28;20040;-81
2021/09/12 23:12:17;;;;;;;40.60;27.17;;;15.00;99.90;;;;;;5055650;28;20032;-81
2021/09/12 23:14:43;;;;;;;36.00;25.90;;;15.00;99.90;;;;;;5055432;28;20487;-81
2021/09/12 23:17:08;;;;;;;36.17;26.67;;;15.00;99.90;;;;;;5055576;28;20029;-81
2021/09/12 23:19:34;;;;;;;38.90;25.80;;;14.90;99.90;;;;;;5055247;28;20472;-81
2021/09/12 23:22:00;;;;;;;35.47;25.77;;;14.90;99.90;;;;;;5055505;28;20476;-81
2021/09/12 23:24:25;;;;;;;36.90;27.17;;;14.90;99.90;;;;;;5055399;28;20467;-81
2021/09/12 23:26:51;;;;;;;36.50;25.60;;;14.90;99.90;;;;;;5055132;28;20480;-81
2021/09/12 23:29:16;;;;;;;37.28;25.35;;;14.80;99.90;;;;;;5054995;28;20021;-81
2021/09/12 23:31:42;;;;;;;34.67;25.38;;;14.80;99.90;;;;;;5053705;28;20017;-81
2021/09/12 23:34:09;;;;;;;34.08;25.67;;;14.80;99.90;;;;;;5053525;28;20056;-81
2021/09/12 23:36:35;;;;;;;38.17;26.00;;;14.80;99.90;;;;;;5053730;28;20032;-81
2021/09/12 23:39:01;;;;;;;36.92;26.02;;;14.80;99.90;;;;;;5054810;28;20031;-81